Time;durP1;ratioP1;P1;durP2;ratioP2;P2;SDS_P1;SDS_P2;PMS_P1;PMS_P2;Temp;Humidity;BMP_temperature;BMP_pressure;BME280_temperature;BME280_humidity;BME280_pressure;Samples;Min_cycle;Max_cycle;Signal;HPM_P1;HPM_P2
2022/05/17 00:02:33;;;;;;;4.40;2.30;;;;;;;17.48;44.80;99170.35;235396;1204;138231;-61
2022/05/17 00:07:37;;;;;;;4.90;2.20;;;;;;;17.45;45.53;99167.77;235512;1202;138805;-61
2022/05/17 00:12:40;;;;;;;5.90;2.30;;;;;;;17.40;45.51;99160.43;235561;1204;137729;-60
2022/05/17 00:17:43;;;;;;;5.40;2.30;;;;;;;17.39;44.84;99165.21;235350;1202;137938;-60
2022/05/17 00:22:46;;;;;;;6.40;3.20;;;;;;;17.42;44.49;99167.70;233918;1203;138804;-60
2022/05/17 00:27:49;;;;;;;3.50;1.90;;;;;;;17.39;44.98;99158.62;235445;1204;138640;-60
2022/05/17 00:32:52;;;;;;;5.60;2.50;;;;;;;17.38;45.03;99154.39;235503;1202;139009;-60
2022/05/17 00:37:55;;;;;;;5.60;2.60;;;;;;;17.39;44.79;99147.31;235538;1203;138455;-61
2022/05/17 00:42:58;;;;;;;6.40;2.20;;;;;;;17.41;45.14;99145.56;234172;1204;138090;-60
2022/05/17 00:48:05;;;;;;;3.40;2.10;;;;;;;17.38;44.79;99149.67;235575;1203;139198;-61
2022/05/17 00:53:18;;;;;;;6.20;2.40;;;;;;;17.39;44.59;99141.56;235035;1203;138038;-59
2022/05/17 00:58:39;;;;;;;6.40;2.50;;;;;;;17.37;44.46;99132.94;235267;1204;138294;-60
2022/05/17 01:04:06;;;;;;;4.40;2.30;;;;;;;17.37;44.42;99130.44;235506;1204;138231;-60
2022/05/17 01:09:10;;;;;;;5.70;2.90;;;;;;;17.34;45.23;99127.83;235276;1201;138960;-60
2022/05/17 01:19:42;;;;;;;6.60;2.90;;;;;;;17.26;45.28;99120.11;235453;1203;140589;-60
2022/05/17 01:24:45;;;;;;;9.90;3.00;;;;;;;17.24;45.44;99113.46;235302;1204;138187;-60
2022/05/17 01:29:50;;;;;;;6.40;3.10;;;;;;;17.22;45.63;99118.66;235421;1203;138078;-60
2022/05/17 01:34:53;;;;;;;6.80;2.70;;;;;;;17.20;45.87;99120.39;235317;1204;138301;-60
2022/05/17 01:39:56;;;;;;;5.50;2.80;;;;;;;17.17;46.11;99122.52;235352;1204;137894;-60
2022/05/17 01:44:59;;;;;;;6.30;3.40;;;;;;;17.17;46.05;99124.15;235545;1202;138092;-60
2022/05/17 01:50:02;;;;;;;9.70;3.00;;;;;;;17.15;45.97;99121.99;234166;1203;138519;-61
2022/05/17 01:55:05;;;;;;;5.20;3.00;;;;;;;17.13;45.95;99117.70;235631;1203;138345;-60
2022/05/17 02:00:12;;;;;;;6.80;3.50;;;;;;;17.09;46.28;99105.10;235095;1204;138135;-59
2022/05/17 02:05:16;;;;;;;8.20;3.10;;;;;;;17.06;46.13;99105.23;235490;1203;138810;-61
2022/05/17 02:10:30;;;;;;;6.90;3.30;;;;;;;17.05;46.21;99100.30;235374;1204;141620;-60
2022/05/17 02:15:35;;;;;;;8.70;3.00;;;;;;;17.01;46.33;99104.74;235453;1202;138304;-61
2022/05/17 02:20:38;;;;;;;6.60;2.80;;;;;;;16.96;46.39;99095.01;235296;1204;138134;-61
2022/05/17 02:25:41;;;;;;;6.50;3.00;;;;;;;16.93;46.54;99091.45;235483;1202;138244;-61
2022/05/17 02:30:44;;;;;;;6.70;3.20;;;;;;;16.88;46.69;99092.83;235495;1203;138351;-60
2022/05/17 02:35:47;;;;;;;6.10;3.00;;;;;;;16.82;46.78;99090.98;235171;1203;138086;-63
2022/05/17 02:40:50;;;;;;;9.20;3.50;;;;;;;16.77;47.29;99101.25;235503;1203;138043;-60
2022/05/17 02:45:53;;;;;;;4.40;2.70;;;;;;;16.75;46.97;99103.02;235490;1202;138408;-61
2022/05/17 02:51:05;;;;;;;9.90;3.10;;;;;;;16.71;46.98;99096.75;235399;1204;138526;-60
2022/05/17 02:56:09;;;;;;;10.10;3.20;;;;;;;16.69;47.05;99093.33;234720;1206;138975;-60
2022/05/17 03:01:12;;;;;;;6.40;3.40;;;;;;;16.63;47.52;99090.63;235471;1202;137996;-60
2022/05/17 03:06:16;;;;;;;7.70;2.90;;;;;;;16.61;47.43;99094.09;235386;1204;138079;-60
2022/05/17 03:11:19;;;;;;;7.60;3.00;;;;;;;16.56;47.71;99098.23;235346;1203;138922;-61
2022/05/17 03:16:32;;;;;;;6.90;3.20;;;;;;;16.53;47.53;99092.41;235431;1204;139268;-60
2022/05/17 03:21:35;;;;;;;6.30;3.10;;;;;;;16.49;47.60;99099.36;235348;1204;137904;-61
2022/05/17 03:26:40;;;;;;;9.20;3.50;;;;;;;16.48;47.90;99096.40;235088;1204;138252;-60
2022/05/17 03:31:43;;;;;;;6.60;3.30;;;;;;;16.46;48.01;99092.27;235496;1204;138604;-63
2022/05/17 03:36:46;;;;;;;7.60;3.50;;;;;;;16.48;47.82;99106.75;234799;1204;138543;-60
2022/05/17 03:41:49;;;;;;;7.70;3.50;;;;;;;16.47;47.74;99098.33;235321;1204;138420;-59
2022/05/17 03:46:52;;;;;;;7.20;3.60;;;;;;;16.47;47.71;99100.77;234293;1204;138276;-60
2022/05/17 03:51:55;;;;;;;8.00;3.30;;;;;;;16.52;47.85;99107.66;234868;1204;138189;-60
2022/05/17 03:56:58;;;;;;;4.60;2.90;;;;;;;16.56;47.43;99116.88;235431;1204;138615;-59
2022/05/17 04:02:03;;;;;;;7.20;3.20;;;;;;;16.60;47.90;99121.73;235626;1203;139488;-60
2022/05/17 04:07:08;;;;;;;9.20;3.30;;;;;;;16.60;48.45;99117.97;235616;1203;138626;-60
2022/05/17 04:12:11;;;;;;;9.70;3.10;;;;;;;16.62;48.64;99123.34;233446;1203;138420;-59
2022/05/17 04:17:14;;;;;;;6.80;3.60;;;;;;;16.59;48.78;99126.96;234915;1203;138569;-60
2022/05/17 04:22:17;;;;;;;7.80;3.60;;;;;;;16.60;48.71;99128.49;235589;1203;139194;-59
2022/05/17 04:27:22;;;;;;;6.90;3.30;;;;;;;16.63;48.54;99131.67;235236;1204;138935;-60
2022/05/17 04:32:25;;;;;;;7.40;3.10;;;;;;;16.66;48.56;99129.84;235309;1204;138458;-59
2022/05/17 04:37:28;;;;;;;13.00;3.20;;;;;;;16.67;48.50;99135.40;235677;1203;138514;-59
2022/05/17 04:42:31;;;;;;;18.60;3.70;;;;;;;16.73;48.60;99122.74;234878;1202;140114;-61
2022/05/17 04:47:38;;;;;;;7.90;3.50;;;;;;;16.78;48.76;99118.94;235483;1204;138992;-60
2022/05/17 04:52:41;;;;;;;6.40;3.60;;;;;;;16.81;48.04;99121.90;235392;1204;138203;-60
2022/05/17 04:57:44;;;;;;;8.70;3.80;;;;;;;16.85;48.29;99128.15;235447;1203;138932;-60
2022/05/17 05:02:50;;;;;;;12.70;3.80;;;;;;;16.91;48.10;99133.73;235167;1203;138471;-60
2022/05/17 05:07:54;;;;;;;7.80;3.60;;;;;;;16.96;47.94;99134.27;235493;1204;138605;-60
2022/05/17 05:12:57;;;;;;;5.70;3.80;;;;;;;17.02;48.00;99132.58;235462;1204;138866;-61
2022/05/17 05:18:00;;;;;;;43.30;31.90;;;;;;;17.10;48.59;99131.92;235270;1204;138347;-61
2022/05/17 05:23:03;;;;;;;10.50;6.00;;;;;;;17.30;48.27;99128.34;235297;1202;138126;-59
2022/05/17 05:28:09;;;;;;;13.30;4.00;;;;;;;17.52;49.30;99132.16;235111;1203;139237;-59
2022/05/17 05:33:12;;;;;;;13.10;4.10;;;;;;;17.63;48.09;99130.98;235361;1203;138749;-57
2022/05/17 05:38:15;;;;;;;10.20;4.30;;;;;;;18.00;49.02;99131.44;235395;1203;138780;-59
2022/05/17 05:43:18;;;;;;;41.60;31.70;;;;;;;18.44;47.65;99131.48;235392;1204;138443;-60
2022/05/17 05:48:21;;;;;;;11.20;4.70;;;;;;;18.65;46.38;99128.85;235393;1203;138710;-59
2022/05/17 05:53:24;;;;;;;80.30;67.40;;;;;;;18.59;44.96;99131.38;235145;1203;138891;-58
2022/05/17 05:58:32;;;;;;;12.70;7.70;;;;;;;18.54;46.22;99128.59;234569;1204;138664;-59
2022/05/17 06:03:35;;;;;;;125.80;78.60;;;;;;;18.66;45.86;99132.16;235631;1203;138341;-59
2022/05/17 06:08:38;;;;;;;22.60;14.90;;;;;;;18.76;45.80;99134.30;235380;1203;139456;-60
2022/05/17 06:13:41;;;;;;;10.00;3.90;;;;;;;18.85;45.24;99135.77;234389;1202;138936;-61
2022/05/17 06:18:44;;;;;;;11.20;3.60;;;;;;;18.78;45.19;99132.36;235500;1203;141720;-60
2022/05/17 06:23:47;;;;;;;8.80;3.50;;;;;;;18.65;45.26;99128.61;235338;1204;138549;-60
2022/05/17 06:28:50;;;;;;;94.80;75.60;;;;;;;18.60;45.50;99131.06;235462;1204;138403;-60
2022/05/17 06:33:53;;;;;;;10.70;5.80;;;;;;;18.64;45.66;99129.27;235522;1204;140899;-60
2022/05/17 06:38:56;;;;;;;11.00;5.40;;;;;;;18.68;45.74;99131.26;235536;1204;138602;-60
2022/05/17 06:43:59;;;;;;;9.90;4.00;;;;;;;18.72;44.96;99131.48;234645;1204;138359;-61
2022/05/17 06:49:02;;;;;;;10.30;4.50;;;;;;;18.76;45.68;99125.64;234561;1203;138286;-61
2022/05/17 06:54:06;;;;;;;11.10;4.00;;;;;;;18.82;45.43;99123.10;235485;1203;139178;-60
2022/05/17 06:59:09;;;;;;;10.70;3.80;;;;;;;18.88;45.29;99117.67;235577;1202;138865;-60
2022/05/17 07:04:13;;;;;;;13.40;5.10;;;;;;;18.96;44.87;99114.77;235507;1203;138648;-59
2022/05/17 07:09:16;;;;;;;20.40;6.50;;;;;;;19.02;44.32;99102.67;235232;1203;138546;-60
2022/05/17 07:14:19;;;;;;;14.00;6.50;;;;;;;19.07;44.57;99113.34;235489;1203;138963;-61
2022/05/17 07:19:22;;;;;;;13.00;5.30;;;;;;;19.12;44.98;99117.02;235544;1204;138739;-60
2022/05/17 07:24:45;;;;;;;8.40;3.60;;;;;;;19.24;45.43;99128.15;235074;1204;138307;-60
2022/05/17 07:29:49;;;;;;;15.60;10.50;;;;;;;19.35;45.03;99125.73;235457;1204;138385;-61
2022/05/17 07:34:52;;;;;;;7.70;4.10;;;;;;;19.46;44.58;99123.25;235521;1203;139479;-61
2022/05/17 07:39:56;;;;;;;9.90;3.30;;;;;;;19.58;44.12;99128.77;235444;1204;138284;-62
2022/05/17 07:44:59;;;;;;;7.80;3.40;;;;;;;19.68;43.06;99118.80;235367;1204;138652;-63
2022/05/17 07:50:03;;;;;;;9.00;3.30;;;;;;;19.85;44.03;99123.60;235405;1203;138856;-62
2022/05/17 07:55:06;;;;;;;10.70;3.40;;;;;;;19.96;43.70;99125.88;235445;1204;138165;-60
2022/05/17 08:00:12;;;;;;;107.70;71.30;;;;;;;20.09;42.86;99125.35;235402;1204;138894;-59
2022/05/17 08:05:15;;;;;;;34.60;23.30;;;;;;;20.18;43.27;99119.58;235294;1204;138833;-61
2022/05/17 08:10:20;;;;;;;22.30;11.20;;;;;;;20.33;42.36;99114.02;235313;1204;140706;-61
2022/05/17 08:15:24;;;;;;;;;;;;;;;20.44;42.66;99111.19;235291;1204;138605;-62
2022/05/17 08:20:35;;;;;;;16.60;6.80;;;;;;;20.60;42.24;99112.69;235489;1204;124475;-61
2022/05/17 08:30:59;;;;;;;318.00;102.80;;;;;;;21.02;41.63;99116.94;234589;1204;139627;-63
2022/05/17 08:36:05;;;;;;;204.00;67.30;;;;;;;21.19;39.66;99104.32;235513;1204;139408;-62
2022/05/17 08:41:26;;;;;;;102.80;37.30;;;;;;;21.34;38.86;99107.66;235415;1204;139080;-62
2022/05/17 08:46:54;;;;;;;62.40;28.60;;;;;;;21.44;38.70;99103.11;235343;1204;139038;-60
2022/05/17 08:52:19;;;;;;;12.10;2.60;;;;;;;21.66;37.60;99105.86;235368;1204;138934;-59
2022/05/17 08:57:44;;;;;;;4.80;2.10;;;;;;;21.70;35.78;99096.20;235606;1204;138383;-63
2022/05/17 09:03:00;;;;;;;6.20;2.40;;;;;;;21.80;36.47;99098.43;235365;1203;138456;-64
2022/05/17 09:08:19;;;;;;;15.00;3.60;;;;;;;21.82;36.82;99097.66;235327;1204;138400;-62
2022/05/17 09:13:28;;;;;;;5.90;2.70;;;;;;;21.83;37.48;99103.34;233095;1204;138110;-61
2022/05/17 09:18:51;;;;;;;7.00;2.10;;;;;;;21.87;37.71;99097.65;235432;1204;138362;-63
2022/05/17 09:23:55;;;;;;;6.80;2.50;;;;;;;21.88;37.98;99098.01;234135;1204;138392;-61
2022/05/17 09:29:04;;;;;;;18.40;13.90;;;;;;;21.95;37.70;99092.92;235393;1203;138209;-61
2022/05/17 09:34:08;;;;;;;9.70;7.30;;;;;;;22.08;37.86;99096.29;234149;1204;138813;-62
2022/05/17 09:39:11;;;;;;;8.60;6.30;;;;;;;22.12;37.61;99093.66;235347;1204;138453;-62
2022/05/17 09:44:22;;;;;;;6.20;3.40;;;;;;;22.13;37.29;99093.58;235291;1204;138901;-63
2022/05/17 09:55:22;;;;;;;4.40;1.40;;;;;;;22.21;36.45;99093.98;235573;1203;138757;-61
2022/05/17 10:00:40;;;;;;;3.60;2.30;;;;;;;22.22;36.20;99091.20;235248;1204;139040;-62
2022/05/17 10:05:54;;;;;;;6.30;2.00;;;;;;;22.24;36.17;99093.08;235443;1204;138517;-62
2022/05/17 10:11:06;;;;;;;5.30;1.80;;;;;;;22.32;35.96;99091.34;235453;1204;138815;-62
2022/05/17 10:16:16;;;;;;;21.30;18.20;;;;;;;22.35;36.25;99096.33;235479;1202;138772;-63
2022/05/17 10:21:25;;;;;;;6.70;2.40;;;;;;;22.43;34.94;99096.23;235282;1204;140157;-62
2022/05/17 10:26:34;;;;;;;10.40;6.40;;;;;;;22.53;34.94;99084.52;233951;1204;139433;-61
2022/05/17 10:31:37;;;;;;;4.20;2.50;;;;;;;22.57;35.04;99081.98;235684;1202;138772;-63
2022/05/17 10:36:46;;;;;;;3.30;1.50;;;;;;;22.75;34.46;99083.83;235413;1204;138408;-63
2022/05/17 10:41:50;;;;;;;5.80;1.50;;;;;;;22.81;33.18;99079.71;235389;1203;138503;-63
2022/05/17 10:47:07;;;;;;;4.40;2.00;;;;;;;22.89;33.54;99079.11;235434;1204;139685;-63
2022/05/17 10:52:25;;;;;;;5.30;1.40;;;;;;;22.90;33.01;99079.77;235476;1204;138908;-62
2022/05/17 10:57:58;;;;;;;5.20;1.30;;;;;;;22.89;32.96;99081.50;235539;1204;138762;-63
2022/05/17 11:03:39;;;;;;;4.00;1.30;;;;;;;22.89;32.86;99075.55;235558;1204;138872;-63
2022/05/17 11:09:07;;;;;;;3.50;1.50;;;;;;;22.96;32.56;99073.91;235374;1204;138542;-62
2022/05/17 11:14:18;;;;;;;3.80;1.50;;;;;;;23.07;32.68;99070.63;235556;1202;139068;-63
2022/05/17 11:19:43;;;;;;;3.70;1.40;;;;;;;23.08;32.49;99068.34;235611;1204;139211;-63
2022/05/17 11:25:10;;;;;;;3.90;1.00;;;;;;;23.01;32.00;99072.27;234495;1203;138666;-61
2022/05/17 11:30:27;;;;;;;3.90;1.20;;;;;;;22.91;32.07;99077.36;235578;1203;138686;-62
2022/05/17 11:35:29;;;;;;;5.90;1.50;;;;;;;22.80;31.48;99075.52;235509;1204;138509;-62
2022/05/17 11:40:47;;;;;;;4.70;1.60;;;;;;;22.78;31.51;99086.02;234954;1203;138123;-62
2022/05/17 11:45:51;;;;;;;7.00;1.40;;;;;;;22.89;31.43;99083.79;235477;1204;138418;-62
2022/05/17 11:50:59;;;;;;;4.10;1.20;;;;;;;22.87;30.63;99077.90;235485;1203;138641;-62
2022/05/17 11:56:13;;;;;;;8.60;1.40;;;;;;;22.77;30.75;99091.05;235626;1203;138613;-62
2022/05/17 12:01:31;;;;;;;2.60;1.10;;;;;;;22.75;31.20;99101.57;234191;1204;138214;-61
2022/05/17 12:07:06;;;;;;;3.90;1.30;;;;;;;22.65;30.98;99101.01;234660;1203;141009;-62
2022/05/17 12:12:48;;;;;;;7.70;1.10;;;;;;;22.50;31.24;99107.21;234636;1202;138200;-62
2022/05/17 12:18:06;;;;;;;4.90;1.30;;;;;;;22.41;31.82;99104.77;235490;1203;138139;-62
2022/05/17 12:23:20;;;;;;;2.90;0.90;;;;;;;22.25;31.98;99113.58;235486;1202;138494;-62
2022/05/17 12:28:54;;;;;;;7.10;1.40;;;;;;;22.05;32.24;99110.70;235589;1202;139043;-62
2022/05/17 12:34:08;;;;;;;2.80;1.20;;;;;;;21.86;32.56;99116.34;234685;1202;138302;-62
2022/05/17 12:44:38;;;;;;;6.90;1.50;;;;;;;21.74;32.80;99120.86;235441;1203;138639;-62
2022/05/17 12:49:42;;;;;;;4.80;1.20;;;;;;;21.73;32.94;99122.69;235818;1203;138472;-62
2022/05/17 12:54:50;;;;;;;4.80;1.30;;;;;;;21.65;32.87;99120.73;235655;1203;138747;-62
2022/05/17 13:00:12;;;;;;;3.80;1.20;;;;;;;21.60;32.53;99123.85;235617;1202;138236;-62
2022/05/17 13:05:38;;;;;;;4.40;1.10;;;;;;;21.61;32.69;99123.73;235760;1202;138386;-63
2022/05/17 13:10:55;;;;;;;3.80;1.30;;;;;;;21.60;32.64;99122.02;234458;1203;139124;-64
2022/05/17 13:16:09;;;;;;;5.10;1.10;;;;;;;21.60;33.06;99124.19;235639;1202;138498;-63
2022/05/17 13:21:22;;;;;;;4.70;1.20;;;;;;;21.60;32.20;99120.65;235541;1203;138437;-63
2022/05/17 13:26:30;;;;;;;4.60;1.20;;;;;;;21.54;32.82;99121.94;235583;1203;138795;-63
2022/05/17 13:31:33;;;;;;;5.60;1.10;;;;;;;21.50;32.58;99122.41;235525;1203;138739;-64
2022/05/17 13:36:41;;;;;;;4.50;1.30;;;;;;;21.41;31.89;99126.63;234899;1203;138350;-63
2022/05/17 13:41:47;;;;;;;3.50;1.20;;;;;;;21.33;32.92;99121.83;235628;1203;139119;-63
2022/05/17 13:46:51;;;;;;;6.40;1.30;;;;;;;21.37;32.67;99127.91;235100;1204;138377;-63
2022/05/17 13:52:00;;;;;;;3.90;1.10;;;;;;;21.41;32.01;99129.46;234510;1203;139415;-62
2022/05/17 13:57:19;;;;;;;3.70;1.00;;;;;;;21.44;31.99;99130.96;235203;1203;138361;-63
2022/05/17 14:02:38;;;;;;;4.80;1.10;;;;;;;21.40;32.01;99130.30;235596;1203;138926;-62
2022/05/17 14:11:49;;;;;;;3.10;1.00;;;;;;;21.39;31.72;99133.21;235653;1203;138210;-62
2022/05/17 14:13:26;;;;;;;3.40;1.20;;;;;;;21.40;32.06;99129.73;235655;1203;139028;-62
2022/05/17 14:18:37;;;;;;;5.80;1.10;;;;;;;21.40;31.90;99125.08;235090;1203;138234;-62
2022/05/17 14:23:40;;;;;;;5.40;1.40;;;;;;;21.47;31.81;99122.28;234298;1203;138333;-62
2022/05/17 14:28:44;;;;;;;5.90;1.60;;;;;;;21.53;32.15;99120.05;233572;1203;138363;-61
2022/05/17 14:33:50;;;;;;;2.70;1.30;;;;;;;21.43;32.56;99114.21;235515;1203;138520;-63
2022/05/17 14:38:54;;;;;;;5.80;1.30;;;;;;;21.35;32.75;99117.95;234482;1204;138382;-62
2022/05/17 14:44:18;;;;;;;7.40;1.40;;;;;;;21.29;33.03;99121.02;235311;1203;138472;-62
2022/05/17 14:49:38;;;;;;;4.20;1.40;;;;;;;21.24;33.84;99126.34;235447;1202;138729;-62
2022/05/17 14:54:41;;;;;;;7.80;1.70;;;;;;;21.25;33.38;99135.09;234448;1203;138590;-62
2022/05/17 14:59:45;;;;;;;22.00;14.30;;;;;;;21.25;33.26;99136.73;235552;1202;139579;-64
2022/05/17 15:04:48;;;;;;;6.10;2.40;;;;;;;21.22;33.55;99136.52;235701;1203;138350;-64
2022/05/17 15:09:58;;;;;;;5.20;1.80;;;;;;;21.25;33.25;99136.84;234511;1203;138165;-64
2022/05/17 15:15:01;;;;;;;4.00;1.50;;;;;;;21.26;33.17;99138.80;235800;1203;139515;-65
2022/05/17 15:20:08;;;;;;;4.60;1.50;;;;;;;21.26;32.95;99145.25;235502;1203;138203;-64
2022/05/17 15:25:17;;;;;;;5.20;1.60;;;;;;;21.24;32.83;99147.93;235631;1203;139015;-64
2022/05/17 15:30:26;;;;;;;5.60;1.70;;;;;;;21.31;32.62;99143.67;235558;1203;138428;-64
2022/05/17 15:35:30;;;;;;;3.10;1.60;;;;;;;21.38;32.43;99151.26;235243;1204;138870;-64
2022/05/17 15:40:35;;;;;;;14.80;7.80;;;;;;;21.37;32.46;99148.69;234834;1204;138072;-63
2022/05/17 15:45:39;;;;;;;12.50;2.70;;;;;;;21.34;32.47;99144.61;234441;1204;138934;-63
2022/05/17 15:56:11;;;;;;;6.60;1.50;;;;;;;21.32;33.07;99141.27;235388;1203;138707;-64
2022/05/17 16:01:25;;;;;;;4.80;2.10;;;;;;;21.36;33.32;99149.34;235601;1203;138392;-63
2022/05/17 16:06:29;;;;;;;4.20;1.70;;;;;;;21.43;34.02;99146.06;235327;1203;138527;-63
2022/05/17 16:11:50;;;;;;;6.40;1.60;;;;;;;21.48;33.84;99147.67;235379;1204;138901;-63
2022/05/17 16:16:56;;;;;;;3.70;1.60;;;;;;;21.51;33.73;99142.13;235753;1203;138506;-62
2022/05/17 16:22:00;;;;;;;2.20;1.30;;;;;;;21.53;33.61;99142.26;235701;1204;138812;-62
2022/05/17 16:27:06;;;;;;;7.00;1.30;;;;;;;21.58;33.41;99150.27;235738;1202;138473;-63
2022/05/17 16:32:11;;;;;;;5.10;1.20;;;;;;;21.57;33.48;99147.11;235787;1201;138405;-63
2022/05/17 16:37:14;;;;;;;7.90;4.90;;;;;;;21.61;33.44;99149.02;235856;1203;138214;-63
2022/05/17 16:42:18;;;;;;;16.90;13.30;;;;;;;21.66;33.56;99151.17;235799;1203;138884;-63
2022/05/17 16:47:21;;;;;;;7.60;5.00;;;;;;;21.72;33.85;99151.09;235415;1202;138652;-63
2022/05/17 16:52:24;;;;;;;12.70;7.50;;;;;;;21.74;33.77;99154.45;234579;1203;138243;-62
2022/05/17 16:57:27;;;;;;;8.70;4.70;;;;;;;21.75;33.89;99155.61;233671;1203;138605;-63
2022/05/17 17:02:32;;;;;;;5.40;3.20;;;;;;;21.74;34.02;99159.38;235586;1202;138844;-62
2022/05/17 17:07:38;;;;;;;3.10;2.00;;;;;;;21.68;34.05;99162.76;235548;1203;138682;-63
2022/05/17 17:12:42;;;;;;;6.10;1.90;;;;;;;21.57;33.81;99162.48;235412;1203;138313;-63
2022/05/17 17:17:46;;;;;;;7.90;3.40;;;;;;;21.48;33.88;99170.67;235372;1203;138710;-62
2022/05/17 17:22:50;;;;;;;5.50;2.00;;;;;;;21.43;34.16;99176.77;235468;1203;139697;-63
2022/05/17 17:28:00;;;;;;;6.40;2.00;;;;;;;21.35;34.11;99184.92;235395;1203;139050;-63
2022/05/17 17:38:30;;;;;;;6.80;1.80;;;;;;;21.22;34.49;99195.12;235388;1203;138431;-63
2022/05/17 17:43:34;;;;;;;5.20;1.60;;;;;;;21.14;34.56;99194.02;235545;1204;138705;-63
2022/05/17 17:48:39;;;;;;;7.20;3.50;;;;;;;21.11;34.64;99201.65;235345;1203;138519;-62
2022/05/17 17:53:42;;;;;;;6.00;1.90;;;;;;;21.07;35.00;99211.19;234991;1203;138634;-61
2022/05/17 17:58:46;;;;;;;4.70;2.20;;;;;;;20.99;34.85;99208.15;235288;1203;138586;-62
2022/05/17 18:03:51;;;;;;;93.20;72.40;;;;;;;20.89;34.89;99210.95;235612;1202;139092;-62
2022/05/17 18:08:54;;;;;;;29.90;20.80;;;;;;;20.90;35.53;99218.30;235558;1203;138986;-61
2022/05/17 18:13:58;;;;;;;15.50;9.70;;;;;;;20.96;35.78;99229.06;235699;1202;140421;-60
2022/05/17 18:19:04;;;;;;;12.30;4.10;;;;;;;20.94;36.05;99235.00;235607;1203;138616;-61
2022/05/17 18:24:08;;;;;;;9.00;2.80;;;;;;;20.93;35.70;99239.41;235417;1204;138463;-63
2022/05/17 18:29:27;;;;;;;7.30;2.30;;;;;;;20.84;35.52;99248.71;235529;1203;138327;-59
2022/05/17 18:34:49;;;;;;;5.80;2.30;;;;;;;20.67;35.40;99257.38;235617;1203;138690;-59
2022/05/17 18:39:53;;;;;;;3.90;2.30;;;;;;;20.60;35.64;99279.55;234937;1204;138386;-61
2022/05/17 18:44:58;;;;;;;4.60;2.90;;;;;;;20.55;35.97;99282.71;235573;1203;137827;-62
2022/05/17 18:50:06;;;;;;;8.60;4.20;;;;;;;20.57;36.58;99297.23;235686;1203;138697;-64
2022/05/17 18:55:40;;;;;;;22.50;13.60;;;;;;;20.50;36.54;99299.27;235530;1203;138837;-62
2022/05/17 19:00:47;;;;;;;6.60;3.50;;;;;;;20.49;36.98;99312.01;235145;1204;138842;-62
2022/05/17 19:05:55;;;;;;;68.10;48.30;;;;;;;20.44;36.72;99319.14;235246;1204;138948;-62
2022/05/17 19:16:32;;;;;;;6.40;4.00;;;;;;;20.13;36.65;99336.25;235131;1205;140098;-63
2022/05/17 19:21:39;;;;;;;16.10;9.00;;;;;;;20.27;37.84;99337.34;235406;1203;139401;-62
2022/05/17 19:26:45;;;;;;;10.70;5.90;;;;;;;20.41;37.91;99347.38;235734;1201;138524;-63
2022/05/17 19:31:51;;;;;;;;;;;;;;;20.57;37.98;99357.33;236042;1202;138822;-62
2022/05/17 19:42:20;;;;;;;9.40;4.50;;;;;;;20.30;36.68;99370.05;235291;1204;138916;-61
2022/05/17 19:47:24;;;;;;;10.40;4.30;;;;;;;20.11;36.99;99370.71;235863;1203;138903;-62
2022/05/17 19:52:27;;;;;;;12.40;3.30;;;;;;;19.91;37.06;99380.47;235605;1201;138558;-62
2022/05/17 19:57:30;;;;;;;115.20;71.80;;;;;;;19.75;37.11;99385.64;235807;1203;138559;-62
2022/05/17 20:02:35;;;;;;;10.10;6.50;;;;;;;19.60;36.78;99398.52;235602;1202;138558;-62
2022/05/17 20:07:38;;;;;;;5.90;3.10;;;;;;;19.44;36.71;99403.20;235722;1203;138439;-62
2022/05/17 20:12:43;;;;;;;8.50;2.60;;;;;;;19.25;36.53;99415.85;235789;1203;139222;-63
2022/05/17 20:17:48;;;;;;;9.30;2.80;;;;;;;19.00;36.57;99417.05;235785;1202;138210;-63
2022/05/17 20:23:06;;;;;;;8.90;6.00;;;;;;;18.74;36.39;99433.39;235477;1203;138385;-63
2022/05/17 20:28:13;;;;;;;18.20;12.70;;;;;;;18.50;36.71;99434.94;235731;1203;139846;-64
2022/05/17 20:33:17;;;;;;;5.50;2.80;;;;;;;18.34;36.62;99449.33;235643;1203;139148;-63
2022/05/17 20:38:20;;;;;;;3.30;1.90;;;;;;;18.19;36.64;99447.26;235779;1203;138941;-63
2022/05/17 20:43:28;;;;;;;4.90;1.70;;;;;;;18.01;36.29;99453.11;235635;1203;139168;-63
2022/05/17 20:48:31;;;;;;;3.40;1.60;;;;;;;17.87;36.45;99462.20;235493;1203;139068;-63
2022/05/17 20:53:36;;;;;;;4.90;1.40;;;;;;;17.72;36.49;99466.46;235365;1204;138912;-63
2022/05/17 20:58:39;;;;;;;3.60;1.60;;;;;;;17.60;36.40;99475.94;235390;1204;138413;-63
2022/05/17 21:03:43;;;;;;;3.80;1.90;;;;;;;17.50;36.65;99477.35;235424;1203;138479;-63
2022/05/17 21:08:47;;;;;;;5.50;1.80;;;;;;;17.40;36.64;99483.22;235845;1203;138255;-62
2022/05/17 21:13:50;;;;;;;6.90;1.70;;;;;;;17.25;36.67;99498.56;235952;1203;139975;-63
2022/05/17 21:18:54;;;;;;;8.10;2.30;;;;;;;17.10;36.83;99510.38;235892;1203;138457;-63
2022/05/17 21:23:57;;;;;;;7.10;1.60;;;;;;;17.00;36.81;99511.59;235281;1202;141244;-63
2022/05/17 21:29:00;;;;;;;4.60;2.20;;;;;;;16.91;36.97;99525.35;235761;1203;138028;-64
2022/05/17 21:34:04;;;;;;;2.30;1.50;;;;;;;16.80;36.64;99533.62;235775;1204;139237;-63
2022/05/17 21:39:10;;;;;;;6.80;2.50;;;;;;;16.67;36.93;99544.09;235693;1203;138724;-63
2022/05/17 21:44:14;;;;;;;3.30;1.70;;;;;;;16.56;36.85;99547.48;235553;1203;138574;-63
2022/05/17 21:49:17;;;;;;;4.20;1.80;;;;;;;16.49;36.99;99561.11;235697;1203;139046;-63
2022/05/17 21:54:21;;;;;;;9.50;1.90;;;;;;;16.39;37.12;99568.54;235811;1203;139254;-62
2022/05/17 21:59:28;;;;;;;8.90;1.60;;;;;;;16.30;36.88;99571.13;235826;1202;140556;-63
2022/05/17 22:04:31;;;;;;;5.20;1.90;;;;;;;16.24;36.94;99581.45;234999;1203;138664;-63
2022/05/17 22:09:37;;;;;;;7.30;1.70;;;;;;;16.18;36.87;99593.20;235818;1203;138900;-63
2022/05/17 22:14:40;;;;;;;4.20;1.60;;;;;;;16.11;37.10;99597.85;235748;1202;139225;-63
2022/05/17 22:19:44;;;;;;;7.50;1.60;;;;;;;16.01;36.95;99601.89;235950;1202;138240;-63
2022/05/17 22:24:47;;;;;;;8.30;1.80;;;;;;;15.93;36.81;99611.42;235819;1203;138572;-62
2022/05/17 22:29:50;;;;;;;6.80;2.00;;;;;;;15.85;36.99;99620.63;235852;1203;137886;-63
2022/05/17 22:34:53;;;;;;;3.60;1.90;;;;;;;15.78;37.01;99629.17;235699;1204;138497;-63
2022/05/17 22:39:56;;;;;;;3.80;1.80;;;;;;;15.71;36.99;99635.78;235598;1203;138779;-63
2022/05/17 22:50:22;;;;;;;3.70;1.70;;;;;;;15.48;37.18;99647.29;235845;1203;138688;-63
2022/05/17 22:55:25;;;;;;;7.50;1.80;;;;;;;15.42;37.16;99657.00;234716;1203;139027;-62
2022/05/17 23:00:28;;;;;;;3.80;2.00;;;;;;;15.35;37.31;99663.70;235835;1201;138796;-63
2022/05/17 23:05:31;;;;;;;4.10;1.90;;;;;;;15.27;37.27;99664.18;235841;1201;139072;-63
2022/05/17 23:10:35;;;;;;;5.30;1.90;;;;;;;15.21;37.34;99666.73;235634;1203;138595;-62
2022/05/17 23:15:38;;;;;;;4.60;2.00;;;;;;;15.16;37.37;99672.09;235747;1204;138461;-62
2022/05/17 23:20:41;;;;;;;3.30;1.80;;;;;;;15.08;37.47;99669.45;235648;1203;138182;-62
2022/05/17 23:31:14;;;;;;;5.60;1.70;;;;;;;14.94;37.47;99676.17;235942;1201;138612;-64
2022/05/17 23:36:19;;;;;;;4.80;1.90;;;;;;;14.84;37.74;99675.72;235768;1203;138528;-62
2022/05/17 23:41:23;;;;;;;3.90;1.80;;;;;;;14.74;37.87;99677.15;235868;1203;138659;-61
2022/05/17 23:46:29;;;;;;;5.60;1.60;;;;;;;14.67;37.94;99680.84;235883;1203;138401;-63
2022/05/17 23:51:31;;;;;;;5.20;1.90;;;;;;;14.60;37.78;99681.34;235810;1204;140703;-62
2022/05/17 23:56:37;;;;;;;3.30;1.80;;;;;;;14.53;37.84;99693.64;235768;1203;138854;-62
